createdAt,value
2022-10-23T00:00:43.592Z,101574.34
2022-10-23T00:03:09.968Z,101566.56
2022-10-23T00:05:40.697Z,101568.53
2022-10-23T00:08:07.399Z,101564.63
2022-10-23T00:10:34.458Z,101560.25
2022-10-23T00:13:00.879Z,101560.09
2022-10-23T00:15:27.468Z,101563.50
2022-10-23T00:17:54.164Z,101568.69
2022-10-23T00:20:21.777Z,101572.16
2022-10-23T00:22:48.216Z,101569.84
2022-10-23T00:25:16.323Z,101570.19
2022-10-23T00:27:43.357Z,101574.25
2022-10-23T00:30:10.931Z,101572.13
2022-10-23T00:32:37.350Z,101564.50
2022-10-23T00:35:04.001Z,101564.19
2022-10-23T00:37:30.692Z,101564.84
2022-10-23T00:39:57.022Z,101559.66
2022-10-23T00:42:23.957Z,101552.84
2022-10-23T00:44:50.284Z,101555.91
2022-10-23T00:47:16.996Z,101560.44
2022-10-23T00:49:43.476Z,101556.38
2022-10-23T00:52:13.311Z,101549.72
2022-10-23T00:54:43.206Z,101546.13
2022-10-23T00:57:14.876Z,101552.78
2022-10-23T00:59:41.659Z,101545.47
2022-10-23T01:02:08.144Z,101547.09
2022-10-23T01:04:34.946Z,101551.47
2022-10-23T01:07:25.466Z,101542.53
2022-10-23T01:10:03.533Z,101546.78
2022-10-23T01:12:50.391Z,101547.91
2022-10-23T01:15:23.319Z,101553.91
2022-10-23T01:17:56.799Z,101556.81
2022-10-23T01:20:44.949Z,101553.13
2022-10-23T01:23:37.801Z,101543.06
2022-10-23T01:26:47.725Z,101541.41
2022-10-23T01:30:02.551Z,101545.97
2022-10-23T01:32:45.561Z,101539.16
2022-10-23T01:35:16.566Z,101542.56
2022-10-23T01:37:46.829Z,101537.38
2022-10-23T01:40:38.260Z,101538.03
2022-10-23T01:43:10.642Z,101537.06
2022-10-23T01:45:42.323Z,101535.59
2022-10-23T01:48:14.085Z,101522.91
2022-10-23T01:50:42.809Z,101525.53
2022-10-23T01:53:09.536Z,101518.53
2022-10-23T01:55:38.992Z,101520.47
2022-10-23T01:58:08.435Z,101520.31
2022-10-23T02:00:39.402Z,101517.72
2022-10-23T02:03:07.317Z,101519.69
2022-10-23T02:05:34.085Z,101513.00
2022-10-23T02:08:01.211Z,101498.41
2022-10-23T02:10:53.681Z,101490.97
2022-10-23T02:13:38.258Z,101492.56
2022-10-23T02:16:22.820Z,101487.19
2022-10-23T02:18:55.700Z,101485.91
2022-10-23T02:21:38.825Z,101486.06
2022-10-23T02:24:14.009Z,101484.28
2022-10-23T02:26:55.615Z,101479.91
2022-10-23T02:29:38.885Z,101480.06
2022-10-23T02:32:09.422Z,101472.44
2022-10-23T02:34:36.201Z,101464.81
2022-10-23T02:37:02.852Z,101459.63
2022-10-23T02:39:29.739Z,101456.19
2022-10-23T02:42:20.329Z,101459.78
2022-10-23T02:45:08.827Z,101456.19
2022-10-23T02:47:59.533Z,101466.91
2022-10-23T02:50:52.159Z,101460.25
2022-10-23T02:53:33.169Z,101459.28
2022-10-23T02:56:18.484Z,101460.41
2022-10-23T02:58:56.633Z,101463.19
2022-10-23T03:01:29.130Z,101462.06
2022-10-23T03:03:59.217Z,101460.78
2022-10-23T03:06:26.041Z,101455.09
2022-10-23T03:08:53.636Z,101450.88
2022-10-23T03:11:20.308Z,101444.38
2022-10-23T03:13:46.725Z,101448.13
2022-10-23T03:16:13.072Z,101439.69
2022-10-23T03:18:39.416Z,101440.31
2022-10-23T03:21:05.763Z,101428.97
2022-10-23T03:23:32.099Z,101427.00
2022-10-23T03:25:58.462Z,101426.72
2022-10-23T03:28:24.841Z,101424.91
2022-10-23T03:30:51.752Z,101426.22
2022-10-23T03:33:18.123Z,101425.06
2022-10-23T03:35:44.661Z,101427.03
2022-10-23T03:38:11.014Z,101432.69
2022-10-23T03:40:37.366Z,101421.34
2022-10-23T03:43:03.768Z,101412.38
2022-10-23T03:45:30.875Z,101409.47
2022-10-23T03:47:57.206Z,101409.47
2022-10-23T03:50:23.599Z,101409.00
2022-10-23T03:52:50.369Z,101403.19
2022-10-23T03:55:17.003Z,101405.78
2022-10-23T03:57:43.348Z,101396.81
2022-10-23T04:00:10.303Z,101384.31
2022-10-23T04:02:36.939Z,101380.78
2022-10-23T04:05:03.599Z,101379.97
2022-10-23T04:07:29.972Z,101363.72
2022-10-23T04:09:56.383Z,101360.13
2022-10-23T04:12:22.767Z,101362.59
2022-10-23T04:14:49.115Z,101359.50
2022-10-23T04:17:15.547Z,101356.56
2022-10-23T04:19:41.894Z,101361.41
2022-10-23T04:22:08.313Z,101344.69
2022-10-23T04:24:34.707Z,101345.50
2022-10-23T04:27:01.031Z,101347.28
2022-10-23T04:29:29.368Z,101344.69
2022-10-23T04:31:55.708Z,101344.03
2022-10-23T04:34:22.147Z,101343.06
2022-10-23T04:36:48.588Z,101332.69
2022-10-23T04:39:15.012Z,101333.81
2022-10-23T04:41:41.361Z,101332.56
2022-10-23T04:44:08.167Z,101325.91
2022-10-23T04:46:34.534Z,101324.56
2022-10-23T04:49:00.957Z,101328.31
2022-10-23T04:51:27.380Z,101326.69
2022-10-23T04:53:53.726Z,101328.50
2022-10-23T04:56:20.142Z,101323.78
2022-10-23T04:58:46.488Z,101323.47
2022-10-23T05:01:12.979Z,101326.88
2022-10-23T05:03:39.441Z,101313.53
2022-10-23T05:06:06.106Z,101316.81
2022-10-23T05:08:32.684Z,101309.47
2022-10-23T05:10:59.094Z,101313.16
2022-10-23T05:13:25.422Z,101299.84
2022-10-23T05:15:52.291Z,101312.31
2022-10-23T05:18:33.180Z,101306.00
2022-10-23T05:21:05.657Z,101311.47
2022-10-23T05:23:36.330Z,101300.09
2022-10-23T05:26:04.132Z,101303.16
2022-10-23T05:28:30.783Z,101307.19
2022-10-23T05:30:59.848Z,101307.66
2022-10-23T05:33:28.048Z,101306.69
2022-10-23T05:35:54.477Z,101308.31
2022-10-23T05:38:21.605Z,101307.97
2022-10-23T05:40:48.275Z,101305.84
2022-10-23T05:43:14.622Z,101306.47
2022-10-23T05:45:40.950Z,101298.31
2022-10-23T05:48:11.265Z,101293.94
2022-10-23T05:50:43.451Z,101304.81
2022-10-23T05:53:10.826Z,101308.84
2022-10-23T05:55:38.075Z,101302.66
2022-10-23T05:58:05.075Z,101295.50
2022-10-23T06:00:31.872Z,101288.97
2022-10-23T06:03:03.042Z,101287.81
2022-10-23T06:05:29.540Z,101286.31
2022-10-23T06:07:59.701Z,101278.78
2022-10-23T06:10:27.267Z,101276.28
2022-10-23T06:12:53.719Z,101282.78
2022-10-23T06:15:20.094Z,101280.44
2022-10-23T06:17:46.556Z,101282.53
2022-10-23T06:20:13.013Z,101277.59
2022-10-23T06:22:39.401Z,101270.25
2022-10-23T06:25:06.423Z,101261.28
2022-10-23T06:27:32.769Z,101259.94
2022-10-23T06:29:59.148Z,101256.97
2022-10-23T06:32:25.489Z,101251.84
2022-10-23T06:34:51.815Z,101255.09
2022-10-23T06:37:18.183Z,101255.56
2022-10-23T06:39:44.556Z,101248.19
2022-10-23T06:42:11.026Z,101244.69
2022-10-23T06:44:37.418Z,101244.97
2022-10-23T06:47:04.035Z,101250.78
2022-10-23T06:49:30.453Z,101237.59
2022-10-23T06:51:56.791Z,101238.06
2022-10-23T06:54:23.199Z,101236.28
2022-10-23T06:56:49.634Z,101231.69
2022-10-23T06:59:15.970Z,101239.94
2022-10-23T07:01:42.519Z,101233.75
2022-10-23T07:04:09.113Z,101225.59
2022-10-23T07:06:35.443Z,101229.41
2022-10-23T07:09:01.791Z,101220.28
2022-10-23T07:11:28.138Z,101223.50
2022-10-23T07:13:54.493Z,101222.94
2022-10-23T07:16:23.479Z,101232.81
2022-10-23T07:18:58.758Z,101237.66
2022-10-23T07:21:30.172Z,101235.31
2022-10-23T07:23:58.163Z,101240.94
2022-10-23T07:26:24.699Z,101223.34
2022-10-23T07:28:55.041Z,101224.78
2022-10-23T07:31:28.132Z,101225.03
2022-10-23T07:33:55.145Z,101225.63
2022-10-23T07:36:21.674Z,101221.69
2022-10-23T07:38:48.023Z,101228.13
2022-10-23T07:41:15.467Z,101225.16
2022-10-23T07:43:41.990Z,101209.75
2022-10-23T07:46:09.813Z,101213.78
2022-10-23T07:48:37.245Z,101213.25
2022-10-23T07:51:08.484Z,101208.25
2022-10-23T07:53:35.708Z,101212.91
2022-10-23T07:56:05.335Z,101210.56
2022-10-23T07:58:31.724Z,101206.59
2022-10-23T08:01:00.591Z,101194.97
2022-10-23T08:03:32.795Z,101195.38
2022-10-23T08:06:00.273Z,101195.84
2022-10-23T08:08:27.136Z,101199.66
2022-10-23T08:10:55.061Z,101184.25
2022-10-23T08:13:22.017Z,101184.09
2022-10-23T08:15:50.279Z,101192.38
2022-10-23T08:18:17.335Z,101192.41
2022-10-23T08:20:45.434Z,101190.22
2022-10-23T08:23:13.268Z,101185.25
2022-10-23T08:25:40.311Z,101177.84
2022-10-23T08:28:07.903Z,101176.47
2022-10-23T08:30:35.352Z,101182.09
2022-10-23T08:33:06.423Z,101191.19
2022-10-23T08:35:37.548Z,101179.53
2022-10-23T08:38:05.279Z,101172.09
2022-10-23T08:40:31.872Z,101167.53
2022-10-23T08:43:10.227Z,101169.75
2022-10-23T08:45:44.271Z,101152.88
2022-10-23T08:48:23.269Z,101152.28
2022-10-23T08:50:56.081Z,101145.69
2022-10-23T08:53:30.177Z,101146.91
2022-10-23T08:56:14.217Z,101130.66
2022-10-23T08:58:56.743Z,101128.25
2022-10-23T09:01:46.577Z,101132.88
2022-10-23T09:04:15.221Z,101136.53
2022-10-23T09:07:02.294Z,101133.09
2022-10-23T09:10:02.922Z,101128.50
2022-10-23T09:12:31.340Z,101124.09
2022-10-23T09:15:31.283Z,101118.66
2022-10-23T09:18:00.853Z,101106.81
2022-10-23T09:20:34.308Z,101101.78
2022-10-23T09:23:07.664Z,101104.00
2022-10-23T09:25:38.337Z,101104.59
2022-10-23T09:28:05.860Z,101093.94
2022-10-23T09:30:39.616Z,101096.38
2022-10-23T09:33:26.593Z,101099.78
2022-10-23T09:36:05.138Z,101095.16
2022-10-23T09:38:47.579Z,101098.59
2022-10-23T09:41:17.460Z,101097.59
2022-10-23T09:43:44.120Z,101092.56
2022-10-23T09:46:11.853Z,101097.59
2022-10-23T09:48:39.752Z,101089.13
2022-10-23T09:51:17.418Z,101082.50
2022-10-23T09:54:00.731Z,101082.50
2022-10-23T09:56:34.832Z,101081.47
2022-10-23T09:59:26.923Z,101074.25
2022-10-23T10:01:58.985Z,101067.59
2022-10-23T10:04:37.971Z,101073.03
2022-10-23T10:07:15.484Z,101071.66
2022-10-23T10:09:43.227Z,101064.78
2022-10-23T10:12:30.212Z,101064.19
2022-10-23T10:15:21.777Z,101057.56
2022-10-23T10:18:20.659Z,101052.50
2022-10-23T10:21:16.075Z,101048.47
2022-10-23T10:23:42.329Z,101047.06
2022-10-23T10:29:45.667Z,101042.78
2022-10-23T10:32:32.070Z,101031.13
2022-10-23T10:35:13.402Z,101020.47
2022-10-23T10:38:01.802Z,101013.81
2022-10-23T10:40:34.706Z,101002.13
2022-10-23T10:43:32.187Z,101014.38
2022-10-23T10:46:36.388Z,100999.88
2022-10-23T10:49:34.701Z,100996.03
2022-10-23T10:52:13.687Z,100994.81
2022-10-23T10:55:04.937Z,100979.50
2022-10-23T10:57:33.758Z,100968.81
2022-10-23T11:00:22.395Z,100959.94
2022-10-23T11:02:57.894Z,100950.06
2022-10-23T11:05:38.862Z,100952.50
2022-10-23T11:08:27.762Z,100953.44
2022-10-23T11:11:02.980Z,100958.84
2022-10-23T11:13:36.226Z,100957.59
2022-10-23T11:16:23.659Z,100948.66
2022-10-23T11:19:16.125Z,100947.44
2022-10-23T11:22:22.564Z,100945.63
2022-10-23T11:25:28.600Z,100940.19
2022-10-23T11:28:13.176Z,100938.94
2022-10-23T11:30:59.439Z,100928.63
2022-10-23T11:33:25.712Z,100918.94
2022-10-23T11:36:06.474Z,100912.00
2022-10-23T11:38:38.975Z,100896.78
2022-10-23T11:41:25.391Z,100901.88
2022-10-23T11:43:56.965Z,100894.34
2022-10-23T11:46:23.292Z,100895.41
2022-10-23T11:48:50.430Z,100884.63
2022-10-23T11:51:35.642Z,100879.69
2022-10-23T11:54:17.021Z,100866.59
2022-10-23T11:57:13.392Z,100879.41
2022-10-23T11:59:48.956Z,100872.03
2022-10-23T12:02:38.610Z,100866.09
2022-10-23T12:05:25.121Z,100854.75
2022-10-23T12:07:57.612Z,100845.44
2022-10-23T12:10:30.808Z,100853.75
2022-10-23T12:13:04.181Z,100858.22
2022-10-23T12:15:32.224Z,100855.72
2022-10-23T12:18:14.801Z,100853.66
2022-10-23T12:20:50.111Z,100850.59
2022-10-23T12:23:25.647Z,100844.09
2022-10-23T12:26:26.141Z,100835.19
2022-10-23T12:29:44.053Z,100823.09
2022-10-23T12:32:48.911Z,100812.16
2022-10-23T12:35:18.476Z,100803.56
2022-10-23T12:37:57.346Z,100803.56
2022-10-23T12:40:29.791Z,100807.25
2022-10-23T12:42:59.298Z,100800.38
2022-10-23T12:45:46.083Z,100806.19
2022-10-23T12:48:21.365Z,100801.88
2022-10-23T12:50:53.482Z,100795.56
2022-10-23T12:53:22.680Z,100793.66
2022-10-23T12:55:56.058Z,100792.41
2022-10-23T12:58:31.877Z,100781.91
2022-10-23T13:01:01.247Z,100775.03
2022-10-23T13:03:29.743Z,100762.94
2022-10-23T13:05:58.738Z,100762.03
2022-10-23T13:08:33.863Z,100754.38
2022-10-23T13:11:00.871Z,100743.41
2022-10-23T13:13:27.706Z,100751.84
2022-10-23T13:15:54.142Z,100743.75
2022-10-23T13:18:20.541Z,100747.53
2022-10-23T13:20:52.941Z,100744.44
2022-10-23T13:23:27.872Z,100741.44
2022-10-23T13:26:02.473Z,100740.06
2022-10-23T13:28:35.078Z,100736.44
2022-10-23T13:31:06.583Z,100724.06
2022-10-23T13:33:45.055Z,100720.44
2022-10-23T13:36:13.403Z,100704.66
2022-10-23T13:38:43.215Z,100703.38
2022-10-23T13:41:16.203Z,100693.69
2022-10-23T13:43:43.910Z,100688.53
2022-10-23T13:46:22.360Z,100693.88
2022-10-23T13:48:49.235Z,100678.69
2022-10-23T13:51:20.318Z,100680.28
2022-10-23T13:53:46.828Z,100669.53
2022-10-23T13:56:15.364Z,100663.72
2022-10-23T13:58:42.108Z,100657.66
2022-10-23T14:01:22.767Z,100661.66
2022-10-23T14:03:50.601Z,100655.13
2022-10-23T14:06:17.155Z,100653.31
2022-10-23T14:08:43.531Z,100655.69
2022-10-23T14:11:11.552Z,100649.06
2022-10-23T14:13:38.636Z,100651.69
2022-10-23T14:16:06.087Z,100647.22
2022-10-23T14:18:32.456Z,100643.38
2022-10-23T14:21:04.418Z,100638.31
2022-10-23T14:23:31.064Z,100636.72
2022-10-23T14:26:04.859Z,100631.47
2022-10-23T14:28:31.489Z,100625.97
2022-10-23T14:30:57.899Z,100636.63
2022-10-23T14:33:26.583Z,100635.78
2022-10-23T14:35:52.980Z,100636.97
2022-10-23T14:38:19.337Z,100645.97
2022-10-23T14:40:45.708Z,100637.78
2022-10-23T14:43:12.179Z,100628.28
2022-10-23T14:45:38.602Z,100632.41
2022-10-23T14:48:05.348Z,100632.34
2022-10-23T14:50:34.198Z,100637.19
2022-10-23T14:55:31.847Z,100628.41
2022-10-23T14:57:58.210Z,100630.69
2022-10-23T15:00:24.763Z,100620.09
2022-10-23T15:02:51.136Z,100622.38
2022-10-23T15:05:17.881Z,100615.53
2022-10-23T15:07:44.282Z,100605.25
2022-10-23T15:10:10.948Z,100603.69
2022-10-23T15:12:38.365Z,100598.06
2022-10-23T15:15:06.705Z,100599.91
2022-10-23T15:17:34.082Z,100596.38
2022-10-23T15:20:01.031Z,100596.28
2022-10-23T15:22:27.882Z,100598.81
2022-10-23T15:24:55.036Z,100596.13
2022-10-23T15:27:21.379Z,100588.84
2022-10-23T15:29:47.770Z,100585.06
2022-10-23T15:32:14.180Z,100578.47
2022-10-23T15:34:42.687Z,100571.28
2022-10-23T15:37:10.992Z,100568.56
2022-10-23T15:39:37.363Z,100563.22
2022-10-23T15:42:05.298Z,100561.31
2022-10-23T15:44:33.015Z,100558.91
2022-10-23T15:47:00.711Z,100551.50
2022-10-23T15:49:31.492Z,100558.00
2022-10-23T15:51:58.496Z,100547.16
2022-10-23T15:54:28.046Z,100552.66
2022-10-23T15:56:57.040Z,100546.06
2022-10-23T15:59:24.907Z,100538.41
2022-10-23T16:01:52.064Z,100530.78
2022-10-23T16:04:18.591Z,100532.56
2022-10-23T16:06:45.438Z,100515.47
2022-10-23T16:09:11.860Z,100515.72
2022-10-23T16:11:39.741Z,100513.31
2022-10-23T16:14:06.230Z,100505.44
2022-10-23T16:16:33.600Z,100512.97
2022-10-23T16:19:01.269Z,100516.06
2022-10-23T16:21:30.386Z,100521.53
2022-10-23T16:23:58.492Z,100512.50
2022-10-23T16:26:25.783Z,100525.28
2022-10-23T16:28:54.158Z,100520.28
2022-10-23T16:31:21.444Z,100526.53
2022-10-23T16:33:48.429Z,100523.59
2022-10-23T16:36:16.035Z,100516.19
2022-10-23T16:38:42.420Z,100509.91
2022-10-23T16:41:08.891Z,100511.16
2022-10-23T16:43:35.305Z,100501.13
2022-10-23T16:46:07.247Z,100505.59
2022-10-23T16:48:34.974Z,100501.03
2022-10-23T16:51:06.311Z,100506.72
2022-10-23T16:53:33.401Z,100504.09
2022-10-23T16:56:00.079Z,100498.19
2022-10-23T16:58:26.943Z,100504.69
2022-10-23T17:01:00.812Z,100502.88
2022-10-23T17:03:28.274Z,100511.97
2022-10-23T17:06:01.497Z,100513.22
2022-10-23T17:08:28.902Z,100509.25
2022-10-23T17:11:04.466Z,100507.88
2022-10-23T17:13:30.842Z,100512.88
2022-10-23T17:16:09.859Z,100511.53
2022-10-23T17:18:39.834Z,100519.41
2022-10-23T17:21:11.007Z,100516.19
2022-10-23T17:23:37.520Z,100513.78
2022-10-23T17:26:07.573Z,100514.03
2022-10-23T17:28:39.667Z,100508.00
2022-10-23T17:31:18.785Z,100506.41
2022-10-23T17:33:46.440Z,100504.81
2022-10-23T17:36:15.160Z,100500.13
2022-10-23T17:38:43.487Z,100498.56
2022-10-23T17:41:11.707Z,100505.59
2022-10-23T17:43:38.679Z,100508.22
2022-10-23T17:46:06.670Z,100504.03
2022-10-23T17:48:33.156Z,100495.56
2022-10-23T17:51:21.421Z,100506.72
2022-10-23T17:53:50.012Z,100499.91
2022-10-23T17:56:22.557Z,100498.31
2022-10-23T17:58:50.542Z,100501.59
2022-10-23T18:01:20.403Z,100500.47
2022-10-23T18:03:47.171Z,100495.47
2022-10-23T18:06:19.322Z,100491.00
2022-10-23T18:08:46.506Z,100494.41
2022-10-23T18:11:19.264Z,100481.44
2022-10-23T18:13:46.237Z,100481.31
2022-10-23T18:16:13.968Z,100484.41
2022-10-23T18:18:42.871Z,100481.69
2022-10-23T18:21:09.893Z,100490.44
2022-10-23T18:23:36.838Z,100487.81
2022-10-23T18:26:04.621Z,100485.53
2022-10-23T18:28:31.480Z,100486.47
2022-10-23T18:30:57.888Z,100464.59
2022-10-23T18:33:24.538Z,100484.88
2022-10-23T18:35:50.982Z,100480.19
2022-10-23T18:38:17.366Z,100457.72
2022-10-23T18:40:44.000Z,100457.03
2022-10-23T18:43:14.942Z,100450.09
2022-10-23T18:45:46.574Z,100468.78
2022-10-23T18:48:13.520Z,100469.88
2022-10-23T18:50:39.938Z,100456.69
2022-10-23T18:53:06.280Z,100443.56
2022-10-23T18:58:00.043Z,100457.59
2022-10-23T19:00:26.452Z,100452.13
2022-10-23T19:02:53.024Z,100449.97
2022-10-23T19:05:19.722Z,100452.56
2022-10-23T19:07:48.012Z,100452.69
2022-10-23T19:10:17.879Z,100448.22
2022-10-23T19:12:44.598Z,100413.34
2022-10-23T19:15:11.355Z,100388.25
2022-10-23T19:17:37.755Z,100424.75
2022-10-23T19:20:14.671Z,100431.13
2022-10-23T19:22:44.785Z,100409.72
2022-10-23T19:25:15.347Z,100423.50
2022-10-23T19:27:44.088Z,100422.41
2022-10-23T19:30:13.571Z,100430.16
2022-10-23T19:32:41.391Z,100424.81
2022-10-23T19:35:08.724Z,100431.06
2022-10-23T19:37:35.212Z,100430.75
2022-10-23T19:40:06.381Z,100426.19
2022-10-23T19:42:38.591Z,100443.16
2022-10-23T19:45:07.316Z,100424.00
2022-10-23T19:47:34.616Z,100450.69
2022-10-23T19:50:01.010Z,100457.97
2022-10-23T19:52:27.429Z,100469.38
2022-10-23T19:54:53.847Z,100471.44
2022-10-23T19:57:22.513Z,100477.56
2022-10-23T19:59:50.927Z,100466.97
2022-10-23T20:02:18.869Z,100484.72
2022-10-23T20:04:45.591Z,100484.16
2022-10-23T20:07:12.361Z,100484.25
2022-10-23T20:09:38.756Z,100488.38
2022-10-23T20:12:05.180Z,100489.81
2022-10-23T20:14:31.688Z,100495.47
2022-10-23T20:16:59.690Z,100506.63
2022-10-23T20:19:26.105Z,100496.81
2022-10-23T20:21:52.533Z,100503.31
2022-10-23T20:24:20.445Z,100517.88
2022-10-23T20:26:49.738Z,100520.47
2022-10-23T20:29:16.464Z,100510.91
2022-10-23T20:31:43.479Z,100518.75
2022-10-23T20:34:10.927Z,100526.47
2022-10-23T20:36:45.513Z,100536.03
2022-10-23T20:39:16.736Z,100537.56
2022-10-23T20:41:44.921Z,100533.22
2022-10-23T20:44:13.862Z,100546.94
2022-10-23T20:46:40.616Z,100541.00
2022-10-23T20:49:07.155Z,100543.84
2022-10-23T20:51:35.659Z,100551.34
2022-10-23T20:54:02.417Z,100549.81
2022-10-23T20:56:39.171Z,100551.41
2022-10-23T20:59:14.718Z,100553.88
2022-10-23T21:01:44.316Z,100556.72
2022-10-23T21:04:14.171Z,100557.50
2022-10-23T21:06:57.810Z,100567.19
2022-10-23T21:09:31.172Z,100563.16
2022-10-23T21:11:57.587Z,100538.69
2022-10-23T21:14:23.935Z,100558.22
2022-10-23T21:16:50.317Z,100546.38
2022-10-23T21:19:16.673Z,100563.88
2022-10-23T21:21:43.801Z,100566.66
2022-10-23T21:24:17.068Z,100574.41
2022-10-23T21:26:44.750Z,100556.34
2022-10-23T21:29:20.007Z,100549.16
2022-10-23T21:31:55.022Z,100539.56
2022-10-23T21:34:22.260Z,100553.06
2022-10-23T21:37:11.219Z,100545.09
2022-10-23T21:39:35.095Z,100547.91
2022-10-23T21:42:01.705Z,100549.06
2022-10-23T21:44:28.102Z,100540.00
2022-10-23T21:46:55.231Z,100540.78
2022-10-23T21:49:21.655Z,100553.84
2022-10-23T21:51:48.057Z,100561.91
2022-10-23T21:54:17.281Z,100557.47
2022-10-23T21:56:49.498Z,100564.53
2022-10-23T21:59:19.050Z,100559.94
2022-10-23T22:01:47.135Z,100564.59
2022-10-23T22:04:15.129Z,100556.75
2022-10-23T22:06:42.747Z,100559.38
2022-10-23T22:09:11.352Z,100560.97
2022-10-23T22:11:37.939Z,100569.81
2022-10-23T22:14:04.650Z,100569.19
2022-10-23T22:16:31.283Z,100566.34
2022-10-23T22:18:57.843Z,100551.47
2022-10-23T22:21:26.887Z,100547.25
2022-10-23T22:23:58.232Z,100552.25
2022-10-23T22:26:30.600Z,100558.50
2022-10-23T22:29:03.160Z,100560.38
2022-10-23T22:31:31.731Z,100547.56
2022-10-23T22:33:58.768Z,100549.81
2022-10-23T22:36:25.927Z,100552.06
2022-10-23T22:38:53.070Z,100550.09
2022-10-23T22:41:20.028Z,100545.66
2022-10-23T22:43:46.583Z,100551.06
2022-10-23T22:46:15.939Z,100549.03
2022-10-23T22:48:43.163Z,100541.97
2022-10-23T22:51:12.303Z,100544.38
2022-10-23T22:53:38.745Z,100542.97
2022-10-23T22:56:09.973Z,100533.53
2022-10-23T22:58:36.786Z,100535.38
2022-10-23T23:01:13.513Z,100532.75
2022-10-23T23:03:40.063Z,100539.34
2022-10-23T23:06:07.780Z,100532.91
2022-10-23T23:08:35.266Z,100534.69
2022-10-23T23:11:02.159Z,100529.91
2022-10-23T23:13:28.921Z,100527.06
2022-10-23T23:15:55.605Z,100535.72
2022-10-23T23:18:22.438Z,100518.59
2022-10-23T23:20:49.105Z,100517.78
2022-10-23T23:23:16.304Z,100516.63
2022-10-23T23:25:44.656Z,100517.50
2022-10-23T23:28:12.545Z,100505.28
2022-10-23T23:30:40.916Z,100511.72
2022-10-23T23:33:08.562Z,100501.50
2022-10-23T23:35:38.628Z,100503.75
2022-10-23T23:38:05.006Z,100504.38
2022-10-23T23:40:31.488Z,100496.97
2022-10-23T23:42:57.818Z,100491.19
2022-10-23T23:45:24.277Z,100493.22
2022-10-23T23:47:50.635Z,100488.56
2022-10-23T23:50:17.359Z,100481.31
2022-10-23T23:52:44.175Z,100482.47
2022-10-23T23:55:10.623Z,100487.28
2022-10-23T23:57:37.256Z,100483.19
